Wetterdaten: aktuell Dienstag, 22.08.2017 23:45
Datum Zeit Auentemp. Feuchte A. Luftdruck Niederschl. Wind Richtung Richtung Sonnenschein UV Windben
22.08.2017 23:45 13,5 C 81 % 1018,9 hPa 0,0 l/m 0,7 km/h N 349 0 min 0,0 UV-I 1,6 km/h
22.08.2017 22:45 14,6 C 78 % 1019,1 hPa 0,0 l/m 0,0 km/h N 349 0 min 0,0 UV-I 1,6 km/h
22.08.2017 21:45 15,6 C 73 % 1019,3 hPa 0,0 l/m 0,3 km/h N 349 0 min 0,0 UV-I 1,6 km/h
22.08.2017 20:45 18,1 C 63 % 1019,3 hPa 0,0 l/m 0,4 km/h N-NW 340 20 min 0,0 UV-I 1,6 km/h
22.08.2017 19:45 20,3 C 53 % 1018,8 hPa 0,0 l/m 2,1 km/h N-NW 342 20 min 0,0 UV-I 4,8 km/h
22.08.2017 18:45 20,9 C 50 % 1018,8 hPa 0,0 l/m 3,6 km/h N-NO 16 30 min 0,0 UV-I 8,0 km/h
22.08.2017 17:45 21,3 C 47 % 1018,9 hPa 0,0 l/m 3,1 km/h NW 307 45 min 0,9 UV-I 6,4 km/h
22.08.2017 16:45 21,9 C 46 % 1019,2 hPa 0,0 l/m 5,1 km/h NO 40 60 min 1,8 UV-I 9,7 km/h
22.08.2017 15:45 21,9 C 46 % 1019,7 hPa 0,0 l/m 3,5 km/h NW 317 55 min 3,0 UV-I 8,0 km/h
22.08.2017 14:45 22,0 C 46 % 1019,9 hPa 0,0 l/m 3,7 km/h S 186 60 min 4,7 UV-I 8,0 km/h
22.08.2017 13:45 21,9 C 45 % 1020,7 hPa 0,0 l/m 3,3 km/h W-NW 288 60 min 5,5 UV-I 8,0 km/h
22.08.2017 12:45 20,4 C 49 % 1021,1 hPa 0,0 l/m 3,5 km/h O-SO 105 60 min 5,3 UV-I 8,0 km/h
22.08.2017 11:45 20,1 C 54 % 1021,6 hPa 0,0 l/m 4,1 km/h O-NO 68 60 min 4,4 UV-I 8,0 km/h
22.08.2017 10:45 18,3 C 61 % 1021,8 hPa 0,0 l/m 3,6 km/h O 98 60 min 3,2 UV-I 8,0 km/h
22.08.2017 09:45 15,6 C 75 % 1022,2 hPa 0,0 l/m 3,3 km/h O-NO 77 35 min 1,8 UV-I 8,0 km/h
22.08.2017 08:45 10,7 C 89 % 1022,6 hPa 0,0 l/m 0,5 km/h W-NW 302 0 min 0,6 UV-I 1,6 km/h
22.08.2017 07:45 8,3 C 93 % 1022,7 hPa 0,0 l/m 1,2 km/h W-NW 302 0 min 0,0 UV-I 3,2 km/h
22.08.2017 06:45 7,7 C 93 % 1022,6 hPa 0,0 l/m 0,0 km/h W-NW 292 0 min 0,0 UV-I 1,6 km/h
22.08.2017 05:45 7,9 C 93 % 1022,3 hPa 0,0 l/m 0,0 km/h W-NW 292 0 min 0,0 UV-I 1,6 km/h
22.08.2017 04:45 8,3 C 92 % 1022,3 hPa 0,0 l/m 1,6 km/h W-NW 292 0 min 0,0 UV-I 3,2 km/h
22.08.2017 03:45 8,7 C 92 % 1022,7 hPa 0,0 l/m 1,6 km/h W-NW 292 0 min 0,0 UV-I 3,2 km/h
22.08.2017 02:45 9,3 C 90 % 1022,7 hPa 0,0 l/m 1,6 km/h W-NW 292 0 min 0,0 UV-I 4,8 km/h
22.08.2017 01:45 9,7 C 90 % 1022,8 hPa 0,0 l/m 3,2 km/h NW 315 0 min 0,0 UV-I 4,8 km/h
22.08.2017 00:45 10,4 C 88 % 1023,2 hPa 0,0 l/m 1,6 km/h NW 315 0 min 0,0 UV-I 3,2 km/h
22.08.2017 00:00 11,1 C 86 % 1023,3 hPa 0,0 l/m 0,0 km/h N 0 0 min 0,0 UV-I 0,0 km/h
_ Min-Zeit 06:50 15:00 20:10 - 23:25 - - - - 23:15
Minimum _ 7,7 C 43 % 1018,8 hPa - 0,0 km/h - - - - 0,0 km/h
_ Max-Zeit 15:30 08:05 00:40 23:45 12:40 - - 20:05 13:45 12:40
Maximum _ 22,6 C 93 % 1023,3 hPa 0,0 l/m 8,0 km/h
O
- - 5 min 5,5 UV-I 14,5 km/h
O-SO
Durchschnitt _ 15,3 C 70 % 1021,1 hPa #0,0 l/m 2,3 km/h W-NW - #9:25 h 3,1 UV-I 5,2 km/h